Doris, Iowa
Current Conditions -  °F | °C
As of 1:55 AM on Friday 31 Oct 2014 (Local Time) from KIIB Reporting Station
Overcast Overcast  
Wind Chill: 29°   Ceiling: 4100
Heat Index: 39°   Visibility: 10mi
Dew Point: 27°   Wind: 23mph
Humidity: 61%   Direction: 340°NNW
Pressure: 30.22"   Gusts: 35mph
Location:  42.46°N, 91.7742°W
Report Text: KIIB 310655Z AUTO 34020G30KT 10SM BKN041 OVC049 04/M03 A3022 RMK AO2
Loading
Personal Weather Stations






























Interactive Weather Map
Tropical Storm Tracking
New forecast layout! Learn more

10-Day Weather Forecast

Advertisements
Track Severe Weather on mobile